sensor_id;sensor_type;location;lat;lon;timestamp;temperature;humidity
18287;DHT22;9269;50.838;12.094;2023-04-16T00:02:02;12.70;61.60
18287;DHT22;9269;50.838;12.094;2023-04-16T00:04:32;12.70;61.30
18287;DHT22;9269;50.838;12.094;2023-04-16T00:07:02;12.70;61.30
18287;DHT22;9269;50.838;12.094;2023-04-16T00:09:31;12.80;61.60
18287;DHT22;9269;50.838;12.094;2023-04-16T00:11:59;12.70;61.00
18287;DHT22;9269;50.838;12.094;2023-04-16T00:14:28;12.70;60.90
18287;DHT22;9269;50.838;12.094;2023-04-16T00:16:56;12.70;60.90
18287;DHT22;9269;50.838;12.094;2023-04-16T00:19:25;12.60;62.40
18287;DHT22;9269;50.838;12.094;2023-04-16T00:21:55;12.60;62.20
18287;DHT22;9269;50.838;12.094;2023-04-16T00:24:23;12.70;61.10
18287;DHT22;9269;50.838;12.094;2023-04-16T00:26:52;12.60;62.30
18287;DHT22;9269;50.838;12.094;2023-04-16T00:29:20;12.70;62.80
18287;DHT22;9269;50.838;12.094;2023-04-16T00:31:49;12.60;62.60
18287;DHT22;9269;50.838;12.094;2023-04-16T00:34:17;12.70;62.50
18287;DHT22;9269;50.838;12.094;2023-04-16T00:36:45;12.70;62.60
18287;DHT22;9269;50.838;12.094;2023-04-16T00:39:15;12.60;62.20
18287;DHT22;9269;50.838;12.094;2023-04-16T00:41:44;12.60;62.40
18287;DHT22;9269;50.838;12.094;2023-04-16T00:44:13;12.60;62.10
18287;DHT22;9269;50.838;12.094;2023-04-16T00:46:41;12.70;61.20
18287;DHT22;9269;50.838;12.094;2023-04-16T00:49:10;12.70;62.60
18287;DHT22;9269;50.838;12.094;2023-04-16T00:51:39;12.70;61.20
18287;DHT22;9269;50.838;12.094;2023-04-16T00:54:07;12.70;62.40
18287;DHT22;9269;50.838;12.094;2023-04-16T00:56:37;12.70;61.20
18287;DHT22;9269;50.838;12.094;2023-04-16T00:59:07;12.70;61.00
18287;DHT22;9269;50.838;12.094;2023-04-16T01:01:36;12.70;62.20
18287;DHT22;9269;50.838;12.094;2023-04-16T01:04:05;12.70;61.00
18287;DHT22;9269;50.838;12.094;2023-04-16T01:06:34;12.60;62.20
18287;DHT22;9269;50.838;12.094;2023-04-16T01:09:03;12.60;61.90
18287;DHT22;9269;50.838;12.094;2023-04-16T01:11:31;12.70;61.30
18287;DHT22;9269;50.838;12.094;2023-04-16T01:14:01;12.70;61.00
18287;DHT22;9269;50.838;12.094;2023-04-16T01:16:29;12.70;60.90
18287;DHT22;9269;50.838;12.094;2023-04-16T01:18:57;12.70;62.20
18287;DHT22;9269;50.838;12.094;2023-04-16T01:21:27;12.60;62.60
18287;DHT22;9269;50.838;12.094;2023-04-16T01:23:56;12.70;61.10
18287;DHT22;9269;50.838;12.094;2023-04-16T01:26:24;12.70;62.10
18287;DHT22;9269;50.838;12.094;2023-04-16T01:28:53;12.70;61.70
18287;DHT22;9269;50.838;12.094;2023-04-16T01:31:21;12.70;60.80
18287;DHT22;9269;50.838;12.094;2023-04-16T01:33:49;12.70;62.40
18287;DHT22;9269;50.838;12.094;2023-04-16T01:36:18;12.70;62.90
18287;DHT22;9269;50.838;12.094;2023-04-16T01:38:48;12.70;63.30
18287;DHT22;9269;50.838;12.094;2023-04-16T01:41:16;12.60;63.00
18287;DHT22;9269;50.838;12.094;2023-04-16T01:43:45;12.60;62.60
18287;DHT22;9269;50.838;12.094;2023-04-16T01:46:19;12.70;61.40
18287;DHT22;9269;50.838;12.094;2023-04-16T01:48:47;12.70;61.30
18287;DHT22;9269;50.838;12.094;2023-04-16T01:51:16;12.60;62.20
18287;DHT22;9269;50.838;12.094;2023-04-16T01:53:44;12.70;60.60
18287;DHT22;9269;50.838;12.094;2023-04-16T01:56:14;12.70;60.70
18287;DHT22;9269;50.838;12.094;2023-04-16T01:58:43;12.70;61.10
18287;DHT22;9269;50.838;12.094;2023-04-16T02:01:12;12.70;61.10
18287;DHT22;9269;50.838;12.094;2023-04-16T02:03:41;12.60;62.60
18287;DHT22;9269;50.838;12.094;2023-04-16T02:06:10;12.70;62.70
18287;DHT22;9269;50.838;12.094;2023-04-16T02:08:40;12.60;62.20
18287;DHT22;9269;50.838;12.094;2023-04-16T02:11:09;12.60;62.30
18287;DHT22;9269;50.838;12.094;2023-04-16T02:13:39;12.60;62.10
18287;DHT22;9269;50.838;12.094;2023-04-16T02:16:07;12.70;61.80
18287;DHT22;9269;50.838;12.094;2023-04-16T02:18:37;12.70;61.50
18287;DHT22;9269;50.838;12.094;2023-04-16T02:21:09;12.60;61.60
18287;DHT22;9269;50.838;12.094;2023-04-16T02:23:37;12.60;61.70
18287;DHT22;9269;50.838;12.094;2023-04-16T02:26:09;12.60;61.50
18287;DHT22;9269;50.838;12.094;2023-04-16T02:28:40;12.60;61.60
18287;DHT22;9269;50.838;12.094;2023-04-16T02:31:09;12.60;61.30
18287;DHT22;9269;50.838;12.094;2023-04-16T02:33:37;12.60;61.30
18287;DHT22;9269;50.838;12.094;2023-04-16T02:36:06;12.70;61.10
18287;DHT22;9269;50.838;12.094;2023-04-16T02:38:36;12.60;61.10
18287;DHT22;9269;50.838;12.094;2023-04-16T02:41:05;12.60;61.00
18287;DHT22;9269;50.838;12.094;2023-04-16T02:43:34;12.60;61.00
18287;DHT22;9269;50.838;12.094;2023-04-16T02:46:05;12.50;60.90
18287;DHT22;9269;50.838;12.094;2023-04-16T02:48:34;12.60;60.70
18287;DHT22;9269;50.838;12.094;2023-04-16T02:51:02;12.60;61.00
18287;DHT22;9269;50.838;12.094;2023-04-16T02:53:31;12.40;61.10
18287;DHT22;9269;50.838;12.094;2023-04-16T02:55:59;12.50;60.70
18287;DHT22;9269;50.838;12.094;2023-04-16T02:58:28;12.50;60.60
18287;DHT22;9269;50.838;12.094;2023-04-16T03:00:56;12.50;60.50
18287;DHT22;9269;50.838;12.094;2023-04-16T03:03:26;12.60;60.80
18287;DHT22;9269;50.838;12.094;2023-04-16T03:05:55;12.60;60.40
18287;DHT22;9269;50.838;12.094;2023-04-16T03:08:24;12.60;60.50
18287;DHT22;9269;50.838;12.094;2023-04-16T03:10:52;12.50;60.50
18287;DHT22;9269;50.838;12.094;2023-04-16T03:13:20;12.50;60.40
18287;DHT22;9269;50.838;12.094;2023-04-16T03:15:49;12.60;60.20
18287;DHT22;9269;50.838;12.094;2023-04-16T03:18:18;12.50;60.30
18287;DHT22;9269;50.838;12.094;2023-04-16T03:20:51;12.50;60.20
18287;DHT22;9269;50.838;12.094;2023-04-16T03:23:20;12.50;60.00
18287;DHT22;9269;50.838;12.094;2023-04-16T03:25:49;12.50;60.40
18287;DHT22;9269;50.838;12.094;2023-04-16T03:28:18;12.40;60.00
18287;DHT22;9269;50.838;12.094;2023-04-16T03:30:50;12.50;59.80
18287;DHT22;9269;50.838;12.094;2023-04-16T03:33:20;12.50;60.10
18287;DHT22;9269;50.838;12.094;2023-04-16T03:35:55;12.50;60.20
18287;DHT22;9269;50.838;12.094;2023-04-16T03:38:24;12.50;59.80
18287;DHT22;9269;50.838;12.094;2023-04-16T03:40:53;12.50;59.90
18287;DHT22;9269;50.838;12.094;2023-04-16T03:43:21;12.50;59.90
18287;DHT22;9269;50.838;12.094;2023-04-16T03:45:49;12.60;59.80
18287;DHT22;9269;50.838;12.094;2023-04-16T03:48:18;12.50;60.00
18287;DHT22;9269;50.838;12.094;2023-04-16T03:50:46;12.50;59.80
18287;DHT22;9269;50.838;12.094;2023-04-16T03:53:17;12.50;60.10
18287;DHT22;9269;50.838;12.094;2023-04-16T03:55:48;12.50;60.50
18287;DHT22;9269;50.838;12.094;2023-04-16T03:58:17;12.40;60.60
18287;DHT22;9269;50.838;12.094;2023-04-16T04:00:46;12.50;60.60
18287;DHT22;9269;50.838;12.094;2023-04-16T04:03:14;12.50;60.60
18287;DHT22;9269;50.838;12.094;2023-04-16T04:05:44;12.50;60.70
18287;DHT22;9269;50.838;12.094;2023-04-16T04:08:13;12.50;60.70
18287;DHT22;9269;50.838;12.094;2023-04-16T04:10:43;12.50;60.40
18287;DHT22;9269;50.838;12.094;2023-04-16T04:13:11;12.50;60.50
18287;DHT22;9269;50.838;12.094;2023-04-16T04:15:40;12.40;60.70
18287;DHT22;9269;50.838;12.094;2023-04-16T04:18:10;12.50;60.30
18287;DHT22;9269;50.838;12.094;2023-04-16T04:20:39;12.50;60.60
18287;DHT22;9269;50.838;12.094;2023-04-16T04:23:07;12.50;60.20
18287;DHT22;9269;50.838;12.094;2023-04-16T04:25:36;12.40;60.30
18287;DHT22;9269;50.838;12.094;2023-04-16T04:28:06;12.50;59.90
18287;DHT22;9269;50.838;12.094;2023-04-16T04:30:34;12.50;60.40
18287;DHT22;9269;50.838;12.094;2023-04-16T04:33:03;12.40;60.20
18287;DHT22;9269;50.838;12.094;2023-04-16T04:35:31;12.50;60.50
18287;DHT22;9269;50.838;12.094;2023-04-16T04:38:04;12.40;60.30
18287;DHT22;9269;50.838;12.094;2023-04-16T04:40:33;12.50;60.50
18287;DHT22;9269;50.838;12.094;2023-04-16T04:43:01;12.40;60.10
18287;DHT22;9269;50.838;12.094;2023-04-16T04:45:31;12.40;60.20
18287;DHT22;9269;50.838;12.094;2023-04-16T04:47:59;12.50;60.30
18287;DHT22;9269;50.838;12.094;2023-04-16T04:50:28;12.50;60.40
18287;DHT22;9269;50.838;12.094;2023-04-16T04:52:56;12.50;60.60
18287;DHT22;9269;50.838;12.094;2023-04-16T04:55:25;12.40;60.40
18287;DHT22;9269;50.838;12.094;2023-04-16T04:57:53;12.40;60.10
18287;DHT22;9269;50.838;12.094;2023-04-16T05:00:21;12.50;60.10
18287;DHT22;9269;50.838;12.094;2023-04-16T05:02:51;12.50;60.00
18287;DHT22;9269;50.838;12.094;2023-04-16T05:05:20;12.40;59.70
18287;DHT22;9269;50.838;12.094;2023-04-16T05:07:48;12.50;59.50
18287;DHT22;9269;50.838;12.094;2023-04-16T05:10:17;12.50;59.20
18287;DHT22;9269;50.838;12.094;2023-04-16T05:12:45;12.40;59.80
18287;DHT22;9269;50.838;12.094;2023-04-16T05:15:15;12.50;59.90
18287;DHT22;9269;50.838;12.094;2023-04-16T05:17:44;12.50;59.50
18287;DHT22;9269;50.838;12.094;2023-04-16T05:20:14;12.50;59.30
18287;DHT22;9269;50.838;12.094;2023-04-16T05:22:42;12.50;59.10
18287;DHT22;9269;50.838;12.094;2023-04-16T05:25:11;12.50;59.10
18287;DHT22;9269;50.838;12.094;2023-04-16T05:27:39;12.50;58.80
18287;DHT22;9269;50.838;12.094;2023-04-16T05:30:08;12.50;58.70
18287;DHT22;9269;50.838;12.094;2023-04-16T05:32:38;12.50;58.70
18287;DHT22;9269;50.838;12.094;2023-04-16T05:35:07;12.50;58.50
18287;DHT22;9269;50.838;12.094;2023-04-16T05:37:37;12.50;58.30
18287;DHT22;9269;50.838;12.094;2023-04-16T05:40:07;12.50;58.70
18287;DHT22;9269;50.838;12.094;2023-04-16T05:42:35;12.50;58.20
18287;DHT22;9269;50.838;12.094;2023-04-16T05:45:05;12.50;58.10
18287;DHT22;9269;50.838;12.094;2023-04-16T05:47:33;12.60;58.10
18287;DHT22;9269;50.838;12.094;2023-04-16T05:50:02;12.60;58.90
18287;DHT22;9269;50.838;12.094;2023-04-16T05:52:30;12.50;59.30
18287;DHT22;9269;50.838;12.094;2023-04-16T05:55:00;12.60;59.50
18287;DHT22;9269;50.838;12.094;2023-04-16T05:57:28;12.60;59.40
18287;DHT22;9269;50.838;12.094;2023-04-16T05:59:57;12.60;59.80
18287;DHT22;9269;50.838;12.094;2023-04-16T06:02:25;12.50;60.00
18287;DHT22;9269;50.838;12.094;2023-04-16T06:04:54;12.50;59.80
18287;DHT22;9269;50.838;12.094;2023-04-16T06:07:22;12.60;59.50
18287;DHT22;9269;50.838;12.094;2023-04-16T06:09:50;12.60;59.00
18287;DHT22;9269;50.838;12.094;2023-04-16T06:12:20;12.60;59.10
18287;DHT22;9269;50.838;12.094;2023-04-16T06:14:49;12.60;59.00
18287;DHT22;9269;50.838;12.094;2023-04-16T06:17:18;12.70;58.90
18287;DHT22;9269;50.838;12.094;2023-04-16T06:19:46;12.60;58.60
18287;DHT22;9269;50.838;12.094;2023-04-16T06:22:15;12.70;58.60
18287;DHT22;9269;50.838;12.094;2023-04-16T06:24:43;12.70;57.30
18287;DHT22;9269;50.838;12.094;2023-04-16T06:27:12;12.70;58.60
18287;DHT22;9269;50.838;12.094;2023-04-16T06:29:41;12.70;57.20
18287;DHT22;9269;50.838;12.094;2023-04-16T06:32:10;12.70;56.70
18287;DHT22;9269;50.838;12.094;2023-04-16T06:34:38;12.70;57.90
18287;DHT22;9269;50.838;12.094;2023-04-16T06:37:07;12.70;56.90
18287;DHT22;9269;50.838;12.094;2023-04-16T06:39:36;12.80;56.50
18287;DHT22;9269;50.838;12.094;2023-04-16T06:42:05;12.80;56.30
18287;DHT22;9269;50.838;12.094;2023-04-16T06:44:34;12.80;56.70
18287;DHT22;9269;50.838;12.094;2023-04-16T06:47:05;12.80;57.10
18287;DHT22;9269;50.838;12.094;2023-04-16T06:49:33;12.90;57.10
18287;DHT22;9269;50.838;12.094;2023-04-16T06:52:02;12.80;57.70
18287;DHT22;9269;50.838;12.094;2023-04-16T06:54:32;12.80;57.20
18287;DHT22;9269;50.838;12.094;2023-04-16T06:57:20;12.90;57.20
18287;DHT22;9269;50.838;12.094;2023-04-16T06:59:49;12.90;57.50
18287;DHT22;9269;50.838;12.094;2023-04-16T07:02:20;12.90;57.20
18287;DHT22;9269;50.838;12.094;2023-04-16T07:04:48;12.90;57.90
18287;DHT22;9269;50.838;12.094;2023-04-16T07:07:18;12.90;57.40
18287;DHT22;9269;50.838;12.094;2023-04-16T07:09:46;12.90;57.00
18287;DHT22;9269;50.838;12.094;2023-04-16T07:12:15;13.00;57.40
18287;DHT22;9269;50.838;12.094;2023-04-16T07:14:43;12.90;57.00
18287;DHT22;9269;50.838;12.094;2023-04-16T07:17:11;13.00;56.80
18287;DHT22;9269;50.838;12.094;2023-04-16T07:19:41;13.00;56.30
18287;DHT22;9269;50.838;12.094;2023-04-16T07:22:09;13.00;56.80
18287;DHT22;9269;50.838;12.094;2023-04-16T07:24:38;13.00;56.80
18287;DHT22;9269;50.838;12.094;2023-04-16T07:27:06;13.10;56.50
18287;DHT22;9269;50.838;12.094;2023-04-16T07:29:34;13.10;56.50
18287;DHT22;9269;50.838;12.094;2023-04-16T07:32:03;13.10;56.60
18287;DHT22;9269;50.838;12.094;2023-04-16T07:34:31;13.20;56.40
18287;DHT22;9269;50.838;12.094;2023-04-16T07:37:02;13.20;56.50
18287;DHT22;9269;50.838;12.094;2023-04-16T07:39:31;13.10;56.10
18287;DHT22;9269;50.838;12.094;2023-04-16T07:41:59;13.20;56.60
18287;DHT22;9269;50.838;12.094;2023-04-16T07:44:31;13.20;56.60
18287;DHT22;9269;50.838;12.094;2023-04-16T07:46:59;13.30;56.70
18287;DHT22;9269;50.838;12.094;2023-04-16T07:49:31;13.30;56.90
18287;DHT22;9269;50.838;12.094;2023-04-16T07:52:01;13.20;57.20
18287;DHT22;9269;50.838;12.094;2023-04-16T07:54:30;13.30;56.90
18287;DHT22;9269;50.838;12.094;2023-04-16T07:56:58;13.30;57.90
18287;DHT22;9269;50.838;12.094;2023-04-16T07:59:26;13.40;57.60
18287;DHT22;9269;50.838;12.094;2023-04-16T08:01:59;13.40;57.40
18287;DHT22;9269;50.838;12.094;2023-04-16T08:04:27;13.30;57.80
18287;DHT22;9269;50.838;12.094;2023-04-16T08:07:09;13.40;57.40
18287;DHT22;9269;50.838;12.094;2023-04-16T08:09:46;13.40;57.70
18287;DHT22;9269;50.838;12.094;2023-04-16T08:12:15;13.40;57.60
18287;DHT22;9269;50.838;12.094;2023-04-16T08:14:59;13.50;57.80
18287;DHT22;9269;50.838;12.094;2023-04-16T08:17:27;13.50;57.20
18287;DHT22;9269;50.838;12.094;2023-04-16T08:19:56;13.60;57.60
18287;DHT22;9269;50.838;12.094;2023-04-16T08:22:26;13.50;57.30
18287;DHT22;9269;50.838;12.094;2023-04-16T08:24:54;13.60;57.80
18287;DHT22;9269;50.838;12.094;2023-04-16T08:27:23;13.50;58.10
18287;DHT22;9269;50.838;12.094;2023-04-16T08:29:51;13.60;58.30
18287;DHT22;9269;50.838;12.094;2023-04-16T08:32:20;13.70;58.10
18287;DHT22;9269;50.838;12.094;2023-04-16T08:34:48;13.70;58.00
18287;DHT22;9269;50.838;12.094;2023-04-16T08:37:25;13.60;58.10
18287;DHT22;9269;50.838;12.094;2023-04-16T08:39:54;13.70;57.90
18287;DHT22;9269;50.838;12.094;2023-04-16T08:42:29;13.80;57.90
18287;DHT22;9269;50.838;12.094;2023-04-16T08:45:06;13.90;57.30
18287;DHT22;9269;50.838;12.094;2023-04-16T08:47:49;13.80;57.80
18287;DHT22;9269;50.838;12.094;2023-04-16T08:50:21;13.90;57.80
18287;DHT22;9269;50.838;12.094;2023-04-16T08:53:05;13.80;57.70
18287;DHT22;9269;50.838;12.094;2023-04-16T08:55:36;13.90;57.60
18287;DHT22;9269;50.838;12.094;2023-04-16T08:58:09;14.00;58.00
18287;DHT22;9269;50.838;12.094;2023-04-16T09:00:56;14.00;57.80
18287;DHT22;9269;50.838;12.094;2023-04-16T09:03:24;14.00;57.50
18287;DHT22;9269;50.838;12.094;2023-04-16T09:05:54;14.00;57.40
18287;DHT22;9269;50.838;12.094;2023-04-16T09:08:26;14.00;57.50
18287;DHT22;9269;50.838;12.094;2023-04-16T09:10:58;14.10;57.20
18287;DHT22;9269;50.838;12.094;2023-04-16T09:13:27;14.10;57.20
18287;DHT22;9269;50.838;12.094;2023-04-16T09:16:00;14.10;57.10
18287;DHT22;9269;50.838;12.094;2023-04-16T09:18:32;14.10;57.20
18287;DHT22;9269;50.838;12.094;2023-04-16T09:21:01;14.10;57.00
18287;DHT22;9269;50.838;12.094;2023-04-16T09:23:32;14.10;57.50
18287;DHT22;9269;50.838;12.094;2023-04-16T09:26:01;14.20;56.80
18287;DHT22;9269;50.838;12.094;2023-04-16T09:28:39;14.20;57.20
18287;DHT22;9269;50.838;12.094;2023-04-16T09:31:09;14.20;56.80
18287;DHT22;9269;50.838;12.094;2023-04-16T09:33:40;14.20;56.70
18287;DHT22;9269;50.838;12.094;2023-04-16T09:36:09;14.30;56.70
18287;DHT22;9269;50.838;12.094;2023-04-16T09:38:47;14.30;56.40
18287;DHT22;9269;50.838;12.094;2023-04-16T09:41:16;14.30;56.70
18287;DHT22;9269;50.838;12.094;2023-04-16T09:43:53;14.40;56.90
18287;DHT22;9269;50.838;12.094;2023-04-16T09:46:29;14.30;56.40
18287;DHT22;9269;50.838;12.094;2023-04-16T09:49:04;14.40;56.40
18287;DHT22;9269;50.838;12.094;2023-04-16T09:51:48;14.40;56.90
18287;DHT22;9269;50.838;12.094;2023-04-16T09:54:22;14.40;56.70
18287;DHT22;9269;50.838;12.094;2023-04-16T09:56:55;14.50;56.90
18287;DHT22;9269;50.838;12.094;2023-04-16T09:59:27;14.30;56.70
18287;DHT22;9269;50.838;12.094;2023-04-16T10:02:07;14.30;56.90
18287;DHT22;9269;50.838;12.094;2023-04-16T10:04:49;14.30;57.00
18287;DHT22;9269;50.838;12.094;2023-04-16T10:07:18;14.20;57.00
18287;DHT22;9269;50.838;12.094;2023-04-16T10:09:49;14.30;57.10
18287;DHT22;9269;50.838;12.094;2023-04-16T10:12:19;14.30;57.20
18287;DHT22;9269;50.838;12.094;2023-04-16T10:14:48;14.30;56.90
18287;DHT22;9269;50.838;12.094;2023-04-16T10:17:17;14.40;57.20
18287;DHT22;9269;50.838;12.094;2023-04-16T10:19:47;14.40;57.10
18287;DHT22;9269;50.838;12.094;2023-04-16T10:22:35;14.40;56.80
18287;DHT22;9269;50.838;12.094;2023-04-16T10:25:07;14.50;56.70
18287;DHT22;9269;50.838;12.094;2023-04-16T10:27:37;14.50;56.70
18287;DHT22;9269;50.838;12.094;2023-04-16T10:30:08;14.40;56.30
18287;DHT22;9269;50.838;12.094;2023-04-16T10:32:38;14.50;56.50
18287;DHT22;9269;50.838;12.094;2023-04-16T10:35:07;14.50;56.40
18287;DHT22;9269;50.838;12.094;2023-04-16T10:37:36;14.50;56.50
18287;DHT22;9269;50.838;12.094;2023-04-16T10:40:25;14.50;56.40
18287;DHT22;9269;50.838;12.094;2023-04-16T10:42:57;14.50;56.20
18287;DHT22;9269;50.838;12.094;2023-04-16T10:45:28;14.40;56.60
18287;DHT22;9269;50.838;12.094;2023-04-16T10:47:58;14.50;56.40
18287;DHT22;9269;50.838;12.094;2023-04-16T10:50:34;14.30;56.80
18287;DHT22;9269;50.838;12.094;2023-04-16T10:53:20;14.30;57.00
18287;DHT22;9269;50.838;12.094;2023-04-16T10:56:10;14.30;57.20
18287;DHT22;9269;50.838;12.094;2023-04-16T10:58:39;14.20;57.20
18287;DHT22;9269;50.838;12.094;2023-04-16T11:01:12;14.20;57.00
18287;DHT22;9269;50.838;12.094;2023-04-16T11:03:45;14.20;57.60
18287;DHT22;9269;50.838;12.094;2023-04-16T11:06:16;14.10;57.60
18287;DHT22;9269;50.838;12.094;2023-04-16T11:08:45;14.10;58.00
18287;DHT22;9269;50.838;12.094;2023-04-16T11:11:22;14.10;58.00
18287;DHT22;9269;50.838;12.094;2023-04-16T11:13:54;14.10;58.70
18287;DHT22;9269;50.838;12.094;2023-04-16T11:16:23;14.10;58.50
18287;DHT22;9269;50.838;12.094;2023-04-16T11:18:53;14.10;58.80
18287;DHT22;9269;50.838;12.094;2023-04-16T11:21:23;14.00;58.40
18287;DHT22;9269;50.838;12.094;2023-04-16T11:23:52;14.10;59.00
18287;DHT22;9269;50.838;12.094;2023-04-16T11:26:25;14.10;58.60
18287;DHT22;9269;50.838;12.094;2023-04-16T11:28:55;14.00;58.80
18287;DHT22;9269;50.838;12.094;2023-04-16T11:31:25;14.00;59.10
18287;DHT22;9269;50.838;12.094;2023-04-16T11:33:55;14.00;59.50
18287;DHT22;9269;50.838;12.094;2023-04-16T11:36:44;14.00;59.50
18287;DHT22;9269;50.838;12.094;2023-04-16T11:39:13;14.00;59.90
18287;DHT22;9269;50.838;12.094;2023-04-16T11:41:44;14.00;59.60
18287;DHT22;9269;50.838;12.094;2023-04-16T11:44:19;14.00;59.80
18287;DHT22;9269;50.838;12.094;2023-04-16T11:46:48;13.90;59.70
18287;DHT22;9269;50.838;12.094;2023-04-16T11:49:17;14.00;59.80
18287;DHT22;9269;50.838;12.094;2023-04-16T11:51:54;14.00;59.60
18287;DHT22;9269;50.838;12.094;2023-04-16T11:54:23;14.00;60.10
18287;DHT22;9269;50.838;12.094;2023-04-16T11:56:53;14.00;60.10
18287;DHT22;9269;50.838;12.094;2023-04-16T11:59:22;14.00;60.30
18287;DHT22;9269;50.838;12.094;2023-04-16T12:01:52;14.10;60.70
18287;DHT22;9269;50.838;12.094;2023-04-16T12:04:23;14.00;61.10
18287;DHT22;9269;50.838;12.094;2023-04-16T12:07:11;14.10;61.10
18287;DHT22;9269;50.838;12.094;2023-04-16T12:09:46;14.00;61.20
18287;DHT22;9269;50.838;12.094;2023-04-16T12:12:27;14.00;61.30
18287;DHT22;9269;50.838;12.094;2023-04-16T12:14:59;13.80;61.50
18287;DHT22;9269;50.838;12.094;2023-04-16T12:17:31;14.00;61.50
18287;DHT22;9269;50.838;12.094;2023-04-16T12:20:12;13.80;61.50
18287;DHT22;9269;50.838;12.094;2023-04-16T12:22:57;13.90;61.80
18287;DHT22;9269;50.838;12.094;2023-04-16T12:25:27;13.90;61.60
18287;DHT22;9269;50.838;12.094;2023-04-16T12:28:00;13.80;61.70
18287;DHT22;9269;50.838;12.094;2023-04-16T12:30:28;13.80;61.70
18287;DHT22;9269;50.838;12.094;2023-04-16T12:33:13;13.80;62.10
18287;DHT22;9269;50.838;12.094;2023-04-16T12:35:42;13.90;61.80
18287;DHT22;9269;50.838;12.094;2023-04-16T12:38:11;13.80;61.90
18287;DHT22;9269;50.838;12.094;2023-04-16T12:40:43;13.80;62.00
18287;DHT22;9269;50.838;12.094;2023-04-16T12:43:14;13.80;62.40
18287;DHT22;9269;50.838;12.094;2023-04-16T12:45:43;13.80;62.40
18287;DHT22;9269;50.838;12.094;2023-04-16T12:48:11;13.80;62.20
18287;DHT22;9269;50.838;12.094;2023-04-16T12:50:40;13.80;62.60
18287;DHT22;9269;50.838;12.094;2023-04-16T12:53:12;13.80;62.40
18287;DHT22;9269;50.838;12.094;2023-04-16T12:55:41;13.80;62.90
18287;DHT22;9269;50.838;12.094;2023-04-16T12:58:13;13.80;62.80
18287;DHT22;9269;50.838;12.094;2023-04-16T13:00:42;13.70;62.90
18287;DHT22;9269;50.838;12.094;2023-04-16T13:03:11;13.80;62.30
18287;DHT22;9269;50.838;12.094;2023-04-16T13:05:40;13.80;62.80
18287;DHT22;9269;50.838;12.094;2023-04-16T13:08:09;13.80;63.20
18287;DHT22;9269;50.838;12.094;2023-04-16T13:10:37;13.80;62.40
18287;DHT22;9269;50.838;12.094;2023-04-16T13:13:06;13.80;62.60
18287;DHT22;9269;50.838;12.094;2023-04-16T13:15:36;13.70;62.40
18287;DHT22;9269;50.838;12.094;2023-04-16T13:18:07;13.70;62.70
18287;DHT22;9269;50.838;12.094;2023-04-16T13:20:36;13.70;62.70
18287;DHT22;9269;50.838;12.094;2023-04-16T13:23:17;13.70;62.70
18287;DHT22;9269;50.838;12.094;2023-04-16T13:25:46;13.70;63.30
18287;DHT22;9269;50.838;12.094;2023-04-16T13:28:16;13.70;63.30
18287;DHT22;9269;50.838;12.094;2023-04-16T13:30:46;13.70;63.40
18287;DHT22;9269;50.838;12.094;2023-04-16T13:33:15;13.70;63.00
18287;DHT22;9269;50.838;12.094;2023-04-16T13:35:47;13.70;63.50
18287;DHT22;9269;50.838;12.094;2023-04-16T13:38:17;13.60;63.40
18287;DHT22;9269;50.838;12.094;2023-04-16T13:41:10;13.60;63.60
18287;DHT22;9269;50.838;12.094;2023-04-16T13:43:53;13.60;63.50
18287;DHT22;9269;50.838;12.094;2023-04-16T13:46:26;13.60;63.50
18287;DHT22;9269;50.838;12.094;2023-04-16T13:48:56;13.70;63.70
18287;DHT22;9269;50.838;12.094;2023-04-16T13:51:25;13.70;63.60
18287;DHT22;9269;50.838;12.094;2023-04-16T13:53:54;13.70;63.80
18287;DHT22;9269;50.838;12.094;2023-04-16T13:56:24;13.60;63.40
18287;DHT22;9269;50.838;12.094;2023-04-16T13:58:52;13.60;63.60
18287;DHT22;9269;50.838;12.094;2023-04-16T14:01:22;13.60;63.60
18287;DHT22;9269;50.838;12.094;2023-04-16T14:03:52;13.70;63.70
18287;DHT22;9269;50.838;12.094;2023-04-16T14:06:21;13.60;64.20
18287;DHT22;9269;50.838;12.094;2023-04-16T14:08:49;13.60;64.00
18287;DHT22;9269;50.838;12.094;2023-04-16T14:11:18;13.60;63.90
18287;DHT22;9269;50.838;12.094;2023-04-16T14:13:47;13.60;64.00
18287;DHT22;9269;50.838;12.094;2023-04-16T14:16:15;13.60;64.30
18287;DHT22;9269;50.838;12.094;2023-04-16T14:18:44;13.50;64.20
18287;DHT22;9269;50.838;12.094;2023-04-16T14:21:14;13.60;64.40
18287;DHT22;9269;50.838;12.094;2023-04-16T14:23:43;13.60;64.30
18287;DHT22;9269;50.838;12.094;2023-04-16T14:26:12;13.70;64.30
18287;DHT22;9269;50.838;12.094;2023-04-16T14:28:41;13.70;64.50
18287;DHT22;9269;50.838;12.094;2023-04-16T14:31:15;13.70;64.40
18287;DHT22;9269;50.838;12.094;2023-04-16T14:33:46;13.60;64.40
18287;DHT22;9269;50.838;12.094;2023-04-16T14:36:16;13.60;64.30
18287;DHT22;9269;50.838;12.094;2023-04-16T14:38:46;13.70;64.10
18287;DHT22;9269;50.838;12.094;2023-04-16T14:41:14;13.70;64.10
18287;DHT22;9269;50.838;12.094;2023-04-16T14:43:44;13.60;64.20
18287;DHT22;9269;50.838;12.094;2023-04-16T14:46:12;13.60;64.50
18287;DHT22;9269;50.838;12.094;2023-04-16T14:48:44;13.70;64.40
18287;DHT22;9269;50.838;12.094;2023-04-16T14:51:12;13.70;64.50
18287;DHT22;9269;50.838;12.094;2023-04-16T14:53:43;13.70;64.90
18287;DHT22;9269;50.838;12.094;2023-04-16T14:56:11;13.70;64.80
18287;DHT22;9269;50.838;12.094;2023-04-16T14:58:40;13.70;64.70
18287;DHT22;9269;50.838;12.094;2023-04-16T15:01:09;13.70;64.40
18287;DHT22;9269;50.838;12.094;2023-04-16T15:03:40;13.70;64.30
18287;DHT22;9269;50.838;12.094;2023-04-16T15:06:10;13.70;64.80
18287;DHT22;9269;50.838;12.094;2023-04-16T15:08:39;13.70;64.70
18287;DHT22;9269;50.838;12.094;2023-04-16T15:11:10;13.60;64.80
18287;DHT22;9269;50.838;12.094;2023-04-16T15:13:39;13.60;64.40
18287;DHT22;9269;50.838;12.094;2023-04-16T15:16:08;13.50;64.50
18287;DHT22;9269;50.838;12.094;2023-04-16T15:18:36;13.50;64.70
18287;DHT22;9269;50.838;12.094;2023-04-16T15:21:05;13.50;65.00
18287;DHT22;9269;50.838;12.094;2023-04-16T15:23:33;13.50;64.90
18287;DHT22;9269;50.838;12.094;2023-04-16T15:26:02;13.40;65.20
18287;DHT22;9269;50.838;12.094;2023-04-16T15:28:32;13.40;65.40
18287;DHT22;9269;50.838;12.094;2023-04-16T15:31:01;13.40;65.40
18287;DHT22;9269;50.838;12.094;2023-04-16T15:33:30;13.50;64.70
18287;DHT22;9269;50.838;12.094;2023-04-16T15:35:59;13.50;65.30
18287;DHT22;9269;50.838;12.094;2023-04-16T15:38:28;13.50;65.60
18287;DHT22;9269;50.838;12.094;2023-04-16T15:40:57;13.40;65.50
18287;DHT22;9269;50.838;12.094;2023-04-16T15:43:47;13.40;65.30
18287;DHT22;9269;50.838;12.094;2023-04-16T15:46:19;13.30;65.20
18287;DHT22;9269;50.838;12.094;2023-04-16T15:48:47;13.30;65.30
18287;DHT22;9269;50.838;12.094;2023-04-16T15:51:16;13.40;65.20